createdAt,value
2019-03-25T00:01:51.869Z,37.64
2019-03-25T00:04:22.092Z,37.63
2019-03-25T00:06:52.340Z,37.65
2019-03-25T00:09:22.546Z,37.60
2019-03-25T00:11:52.852Z,37.58
2019-03-25T00:14:23.274Z,37.61
2019-03-25T00:16:53.324Z,37.64
2019-03-25T00:19:23.551Z,37.65
2019-03-25T00:21:53.774Z,37.61
2019-03-25T00:24:24.068Z,37.57
2019-03-25T00:26:54.291Z,37.63
2019-03-25T00:29:24.445Z,37.65
2019-03-25T00:31:54.666Z,37.62
2019-03-25T00:34:24.872Z,37.63
2019-03-25T00:36:55.192Z,37.67
2019-03-25T00:39:25.512Z,37.64
2019-03-25T00:41:55.665Z,37.63
2019-03-25T00:44:25.761Z,37.60
2019-03-25T00:46:56.001Z,37.60
2019-03-25T00:49:26.300Z,37.60
2019-03-25T00:51:56.528Z,37.62
2019-03-25T00:54:26.774Z,37.66
2019-03-25T00:56:56.999Z,37.69
2019-03-25T00:59:27.205Z,37.61
2019-03-25T01:01:57.519Z,37.69
2019-03-25T01:04:27.843Z,37.68
2019-03-25T01:06:58.063Z,37.69
2019-03-25T01:09:28.213Z,37.69
2019-03-25T01:11:58.427Z,37.72
2019-03-25T01:14:28.658Z,37.73
2019-03-25T01:16:58.960Z,37.66
2019-03-25T01:19:29.180Z,37.68
2019-03-25T01:21:59.311Z,37.61
2019-03-25T01:38:05.773Z,36.70
2019-03-25T01:40:36.065Z,37.18
2019-03-25T01:43:06.301Z,37.38
2019-03-25T01:45:36.538Z,37.54
2019-03-25T01:48:06.764Z,37.53
2019-03-25T02:19:39.348Z,37.38
2019-03-25T02:22:09.646Z,37.79
2019-03-25T02:24:39.870Z,37.94
2019-03-25T02:27:10.114Z,37.86
2019-03-25T02:29:40.356Z,37.81
2019-03-25T02:32:10.565Z,37.83
2019-03-25T02:34:40.874Z,37.88
2019-03-25T02:37:11.086Z,37.81
2019-03-25T02:52:12.502Z,37.00
2019-03-25T02:54:42.720Z,37.43
2019-03-25T02:57:13.018Z,37.42
2019-03-25T02:59:43.250Z,37.45
2019-03-25T03:02:13.387Z,37.59
2019-03-25T03:04:43.640Z,37.67
2019-03-25T03:07:13.809Z,37.55
2019-03-25T03:09:44.036Z,37.64
2019-03-25T03:12:14.359Z,37.52
2019-03-25T03:14:44.669Z,37.37
2019-03-25T03:17:14.830Z,37.19
2019-03-25T03:19:45.063Z,37.18
2019-03-25T03:22:15.353Z,37.19
2019-03-25T03:24:45.647Z,37.09
2019-03-25T03:27:15.778Z,37.07
2019-03-25T03:29:45.960Z,36.97
2019-03-25T03:32:17.701Z,36.99
2019-03-25T03:34:48.001Z,36.96
2019-03-25T03:37:18.234Z,36.94
2019-03-25T03:39:48.506Z,36.95
2019-03-25T03:42:18.714Z,36.99
2019-03-25T03:44:48.922Z,36.85
2019-03-25T03:47:19.335Z,36.91
2019-03-25T03:49:49.549Z,36.98
2019-03-25T03:52:19.697Z,36.97
2019-03-25T03:54:49.910Z,37.05
2019-03-25T03:57:20.144Z,37.09
2019-03-25T03:59:50.470Z,36.99
2019-03-25T04:02:20.774Z,37.04
2019-03-25T04:04:51.088Z,37.13
2019-03-25T04:07:21.247Z,37.11
2019-03-25T04:09:51.453Z,37.16
2019-03-25T04:12:21.685Z,37.20
2019-03-25T04:14:51.983Z,37.12
2019-03-25T04:17:22.208Z,37.09
2019-03-25T04:19:52.443Z,37.16
2019-03-25T04:22:22.684Z,37.14
2019-03-25T04:24:52.915Z,37.18
2019-03-25T04:27:24.108Z,37.14
2019-03-25T04:29:54.262Z,37.10
2019-03-25T04:32:24.601Z,37.12
2019-03-25T04:34:54.825Z,37.19
2019-03-25T04:37:25.109Z,37.12
2019-03-25T04:39:55.344Z,37.05
2019-03-25T04:42:25.583Z,37.05
2019-03-25T04:44:55.810Z,37.10
2019-03-25T04:47:26.034Z,37.08
2019-03-25T04:49:56.330Z,37.10
2019-03-25T04:52:26.654Z,37.13
2019-03-25T04:54:56.801Z,37.13
2019-03-25T04:57:27.020Z,37.13
2019-03-25T04:59:57.258Z,37.08
2019-03-25T05:02:27.859Z,36.97
2019-03-25T05:04:58.117Z,36.90
2019-03-25T05:07:28.399Z,37.01
2019-03-25T05:09:58.632Z,37.03
2019-03-25T05:12:30.371Z,37.00
2019-03-25T05:17:29.321Z,36.93
2019-03-25T05:19:59.624Z,37.19
2019-03-25T05:22:29.580Z,37.50
2019-03-25T05:24:59.784Z,37.79
2019-03-25T05:27:29.981Z,37.85
2019-03-25T05:30:00.440Z,37.45
2019-03-25T05:32:30.627Z,37.57
2019-03-25T05:35:00.774Z,37.94
2019-03-25T05:37:31.007Z,38.01
2019-03-25T05:40:01.220Z,38.52
2019-03-25T05:42:31.517Z,38.32
2019-03-25T05:45:01.880Z,38.00
2019-03-25T05:47:32.173Z,38.47
2019-03-25T05:50:02.429Z,38.16
2019-03-25T05:52:32.658Z,36.84
2019-03-25T05:55:02.863Z,36.24
2019-03-25T05:57:33.200Z,36.15
2019-03-25T06:00:03.471Z,36.21
2019-03-25T06:02:33.620Z,36.35
2019-03-25T06:05:03.859Z,36.02
2019-03-25T06:07:34.079Z,35.73
2019-03-25T06:10:04.416Z,35.52
2019-03-25T06:12:34.583Z,35.33
2019-03-25T06:15:04.951Z,35.15
2019-03-25T06:17:35.168Z,35.87
2019-03-25T06:20:05.447Z,36.75
2019-03-25T06:22:35.616Z,36.90
2019-03-25T06:25:05.971Z,36.97
2019-03-25T06:27:36.246Z,37.12
2019-03-25T06:30:07.051Z,36.93
2019-03-25T06:32:37.307Z,36.90
2019-03-25T06:35:08.903Z,36.90
2019-03-25T06:37:39.422Z,36.99
2019-03-25T06:40:09.946Z,37.06
2019-03-25T06:42:40.168Z,36.98
2019-03-25T06:45:11.109Z,37.28
2019-03-25T06:47:41.349Z,38.03
2019-03-25T06:50:11.567Z,37.82
2019-03-25T06:52:41.966Z,38.01
2019-03-25T06:55:12.198Z,37.53
2019-03-25T06:57:42.434Z,38.48
2019-03-25T07:00:13.937Z,38.05
2019-03-25T07:02:44.195Z,37.90
2019-03-25T07:05:14.410Z,37.86
2019-03-25T07:07:44.560Z,37.34
2019-03-25T07:10:16.884Z,37.14
2019-03-25T07:12:47.064Z,36.22
2019-03-25T07:15:20.317Z,35.22
2019-03-25T07:17:50.467Z,34.80
2019-03-25T07:20:20.757Z,34.18
2019-03-25T07:22:51.097Z,34.05
2019-03-25T07:25:21.333Z,33.86
2019-03-25T07:27:51.573Z,33.69
2019-03-25T07:30:21.777Z,33.34
2019-03-25T07:32:52.115Z,33.10
2019-03-25T07:35:22.584Z,32.75
2019-03-25T07:37:52.839Z,32.53
2019-03-25T07:40:23.088Z,32.27
2019-03-25T07:42:53.320Z,31.63
2019-03-25T07:45:23.612Z,31.89
2019-03-25T07:47:53.838Z,31.45
2019-03-25T07:50:24.098Z,31.20
2019-03-25T07:52:54.389Z,31.33
2019-03-25T07:55:24.651Z,31.04
2019-03-25T07:57:54.894Z,30.34
2019-03-25T08:00:25.074Z,30.31
2019-03-25T08:02:55.414Z,29.99
2019-03-25T08:05:25.697Z,29.79
2019-03-25T08:07:55.855Z,29.65
2019-03-25T08:10:36.491Z,29.66
2019-03-25T08:13:06.928Z,30.12
2019-03-25T08:15:37.241Z,30.06
2019-03-25T08:18:07.466Z,29.45
2019-03-25T08:20:37.721Z,29.22
2019-03-25T08:23:07.942Z,29.00
2019-03-25T08:25:38.167Z,28.78
2019-03-25T08:28:08.456Z,28.74
2019-03-25T08:30:38.793Z,28.65
2019-03-25T08:33:09.109Z,28.92
2019-03-25T08:35:39.254Z,28.99
2019-03-25T08:38:09.499Z,29.10
2019-03-25T08:40:39.731Z,29.18
2019-03-25T08:43:10.099Z,28.77
2019-03-25T08:45:40.437Z,28.60
2019-03-25T08:48:10.760Z,28.50
2019-03-25T08:50:41.165Z,28.40
2019-03-25T08:53:11.430Z,28.31
2019-03-25T08:55:41.654Z,28.37
2019-03-25T08:58:12.581Z,28.24
2019-03-25T09:00:42.917Z,28.15
2019-03-25T09:03:13.140Z,28.04
2019-03-25T09:05:43.436Z,28.12
2019-03-25T09:08:13.673Z,28.03
2019-03-25T09:10:43.997Z,28.07
2019-03-25T09:13:14.245Z,28.09
2019-03-25T09:15:44.457Z,28.10
2019-03-25T09:18:14.690Z,28.08
2019-03-25T09:20:44.879Z,28.04
2019-03-25T09:23:15.317Z,28.06
2019-03-25T09:25:45.634Z,27.97
2019-03-25T09:28:24.032Z,27.82
2019-03-25T09:31:20.112Z,27.58
2019-03-25T09:33:50.448Z,27.65
2019-03-25T09:36:21.300Z,27.52
2019-03-25T09:38:51.388Z,27.52
2019-03-25T09:41:21.612Z,27.36
2019-03-25T09:43:51.906Z,27.27
2019-03-25T09:46:22.230Z,27.30
2019-03-25T09:48:52.490Z,27.04
2019-03-25T09:51:22.709Z,27.38
2019-03-25T09:53:52.937Z,27.53
2019-03-25T09:56:23.267Z,27.51
2019-03-25T09:58:53.789Z,27.89
2019-03-25T10:01:23.979Z,28.15
2019-03-25T10:03:54.413Z,28.28
2019-03-25T10:06:24.668Z,28.33
2019-03-25T10:08:54.901Z,28.40
2019-03-25T10:11:25.102Z,28.53
2019-03-25T10:13:55.410Z,28.68
2019-03-25T10:16:25.729Z,28.83
2019-03-25T10:18:56.058Z,29.06
2019-03-25T10:21:26.307Z,29.42
2019-03-25T10:23:56.543Z,29.67
2019-03-25T10:26:26.848Z,29.93
2019-03-25T10:28:57.185Z,29.89
2019-03-25T10:31:27.518Z,30.21
2019-03-25T10:33:57.805Z,30.55
2019-03-25T10:36:28.119Z,30.57
2019-03-25T10:38:58.518Z,30.70
2019-03-25T10:41:28.700Z,30.63
2019-03-25T10:43:58.932Z,30.99
2019-03-25T10:46:29.225Z,30.85
2019-03-25T10:48:59.542Z,31.46
2019-03-25T10:51:29.777Z,31.17
2019-03-25T10:54:00.118Z,31.95
2019-03-25T10:56:30.362Z,31.66
2019-03-25T10:59:00.461Z,31.70
2019-03-25T11:01:30.768Z,32.31
2019-03-25T11:04:01.100Z,32.07
2019-03-25T11:06:31.524Z,32.03
2019-03-25T11:09:01.677Z,32.07
2019-03-25T11:11:31.897Z,32.05
2019-03-25T11:14:02.109Z,32.04
2019-03-25T11:16:32.413Z,32.01
2019-03-25T11:19:02.728Z,32.09
2019-03-25T11:21:32.888Z,32.22
2019-03-25T11:24:03.100Z,32.12
2019-03-25T11:26:33.336Z,32.22
2019-03-25T11:29:08.304Z,32.16
2019-03-25T11:31:35.599Z,32.08
2019-03-25T11:34:06.016Z,32.08
2019-03-25T11:36:36.264Z,32.04
2019-03-25T11:39:07.945Z,32.00
2019-03-25T11:41:38.157Z,31.97
2019-03-25T11:44:08.445Z,31.96
2019-03-25T11:46:38.825Z,31.92
2019-03-25T11:49:09.092Z,31.89
2019-03-25T11:51:39.340Z,31.92
2019-03-25T11:54:09.579Z,31.96
2019-03-25T11:56:39.866Z,31.94
2019-03-25T11:59:18.250Z,31.90
2019-03-25T12:01:42.151Z,31.87
2019-03-25T12:04:12.478Z,31.87
2019-03-25T12:06:42.734Z,31.94
2019-03-25T12:09:12.954Z,31.76
2019-03-25T12:11:43.272Z,31.86
2019-03-25T12:14:13.580Z,32.06
2019-03-25T12:16:43.896Z,32.26
2019-03-25T12:19:14.235Z,32.29
2019-03-25T12:21:44.472Z,32.58
2019-03-25T12:24:14.701Z,32.57
2019-03-25T12:26:45.034Z,32.71
2019-03-25T12:29:15.426Z,32.81
2019-03-25T12:31:45.749Z,32.85
2019-03-25T12:34:16.152Z,32.88
2019-03-25T12:36:46.502Z,32.94
2019-03-25T12:39:16.752Z,32.95
2019-03-25T12:41:46.995Z,33.00
2019-03-25T12:44:17.205Z,32.99
2019-03-25T12:46:47.511Z,33.09
2019-03-25T12:49:17.826Z,33.17
2019-03-25T12:51:48.595Z,33.29
2019-03-25T12:54:18.881Z,33.38
2019-03-25T12:56:49.248Z,33.45
2019-03-25T12:59:19.463Z,33.53
2019-03-25T13:01:53.177Z,33.52
2019-03-25T13:04:21.754Z,33.57
2019-03-25T13:06:51.983Z,33.67
2019-03-25T13:09:22.301Z,33.84
2019-03-25T13:11:52.591Z,33.44
2019-03-25T13:14:22.826Z,33.53
2019-03-25T13:16:53.188Z,33.61
2019-03-25T13:19:23.402Z,33.67
2019-03-25T13:21:53.614Z,33.66
2019-03-25T13:24:23.917Z,33.71
2019-03-25T13:26:54.238Z,33.73
2019-03-25T13:29:24.670Z,33.69
2019-03-25T13:31:54.994Z,33.69
2019-03-25T13:34:25.343Z,33.78
2019-03-25T13:36:55.564Z,33.75
2019-03-25T13:39:25.793Z,33.80
2019-03-25T13:41:56.085Z,33.84
2019-03-25T13:44:26.428Z,33.84
2019-03-25T13:46:56.732Z,33.85
2019-03-25T13:49:26.892Z,33.89
2019-03-25T13:51:57.120Z,33.95
2019-03-25T13:54:27.452Z,33.97
2019-03-25T13:56:57.732Z,34.12
2019-03-25T13:59:27.966Z,34.23
2019-03-25T14:01:58.276Z,34.36
2019-03-25T14:04:28.551Z,34.55
2019-03-25T14:06:58.750Z,34.54
2019-03-25T14:09:28.988Z,34.60
2019-03-25T14:11:59.381Z,34.64
2019-03-25T14:14:29.674Z,34.72
2019-03-25T14:16:59.926Z,35.09
2019-03-25T14:19:30.075Z,35.21
2019-03-25T14:22:00.350Z,35.09
2019-03-25T14:24:30.520Z,35.32
2019-03-25T14:27:00.853Z,35.52
2019-03-25T14:29:31.137Z,35.59
2019-03-25T14:32:01.396Z,35.60
2019-03-25T14:34:31.607Z,35.65
2019-03-25T14:37:01.842Z,35.70
2019-03-25T14:39:32.135Z,35.85
2019-03-25T14:42:02.469Z,35.78
2019-03-25T14:44:32.790Z,35.74
2019-03-25T14:47:03.038Z,35.61
2019-03-25T14:49:33.261Z,35.43
2019-03-25T14:52:03.606Z,36.21
2019-03-25T14:54:33.886Z,36.37
2019-03-25T14:57:04.220Z,35.98
2019-03-25T14:59:34.537Z,35.78
2019-03-25T15:02:04.792Z,35.90
2019-03-25T15:04:35.007Z,36.15
2019-03-25T15:07:05.338Z,35.95
2019-03-25T15:09:35.658Z,35.82
2019-03-25T15:12:05.959Z,35.81
2019-03-25T15:14:36.288Z,35.79
2019-03-25T15:17:06.725Z,35.70
2019-03-25T15:19:36.978Z,35.66
2019-03-25T15:22:07.193Z,35.62
2019-03-25T15:24:37.425Z,35.56
2019-03-25T15:27:07.804Z,35.52
2019-03-25T15:29:38.132Z,35.89
2019-03-25T15:32:08.387Z,35.45
2019-03-25T15:34:38.604Z,35.21
2019-03-25T15:37:08.832Z,35.16
2019-03-25T15:39:46.669Z,35.06
2019-03-25T15:42:11.183Z,35.55
2019-03-25T15:44:41.423Z,35.84
2019-03-25T15:47:11.801Z,35.13
2019-03-25T15:49:41.998Z,35.38
2019-03-25T15:52:12.323Z,35.21
2019-03-25T15:54:42.536Z,35.06
2019-03-25T15:57:12.938Z,34.91
2019-03-25T15:59:43.373Z,34.67
2019-03-25T16:02:13.696Z,33.92
2019-03-25T16:04:43.918Z,31.81
2019-03-25T16:07:14.179Z,32.16
2019-03-25T16:09:44.439Z,31.41
2019-03-25T16:12:14.696Z,32.84
2019-03-25T16:14:45.164Z,32.27
2019-03-25T16:17:15.446Z,32.47
2019-03-25T16:19:45.769Z,32.63
2019-03-25T16:22:16.167Z,31.79
2019-03-25T16:24:46.337Z,31.40
2019-03-25T16:27:16.697Z,28.73
2019-03-25T16:29:46.899Z,31.30
2019-03-25T16:32:17.197Z,30.94
2019-03-25T16:34:47.517Z,31.26
2019-03-25T16:37:17.770Z,31.32
2019-03-25T16:39:47.976Z,31.96
2019-03-25T16:42:18.228Z,31.80
2019-03-25T16:44:48.545Z,32.43
2019-03-25T16:47:18.872Z,31.98
2019-03-25T16:49:49.184Z,31.87
2019-03-25T16:52:19.448Z,29.73
2019-03-25T16:54:49.659Z,27.47
2019-03-25T16:57:19.643Z,29.85
2019-03-25T16:59:49.950Z,30.71
2019-03-25T17:02:20.279Z,30.63
2019-03-25T17:04:50.435Z,31.15
2019-03-25T17:07:20.651Z,31.05
2019-03-25T17:09:50.853Z,31.48
2019-03-25T17:12:21.162Z,30.83
2019-03-25T17:14:51.485Z,30.86
2019-03-25T17:17:21.815Z,30.99
2019-03-25T17:19:52.059Z,31.44
2019-03-25T17:22:22.288Z,31.87
2019-03-25T17:24:52.620Z,31.48
2019-03-25T17:27:22.929Z,32.04
2019-03-25T17:29:53.233Z,31.99
2019-03-25T17:32:23.491Z,31.73
2019-03-25T17:34:53.708Z,31.71
2019-03-25T17:37:23.950Z,31.54
2019-03-25T17:39:54.224Z,31.72
2019-03-25T17:42:24.458Z,31.83
2019-03-25T17:44:54.744Z,31.27
2019-03-25T17:47:24.967Z,31.66
2019-03-25T17:49:55.166Z,29.07
2019-03-25T17:52:25.439Z,31.04
2019-03-25T17:54:55.676Z,29.89
2019-03-25T17:57:26.039Z,30.88
2019-03-25T17:59:56.260Z,30.74
2019-03-25T18:02:26.482Z,30.53
2019-03-25T18:04:56.773Z,30.39
2019-03-25T18:07:27.088Z,31.40
2019-03-25T18:09:57.418Z,31.88
2019-03-25T18:12:38.261Z,31.80
2019-03-25T18:14:59.531Z,32.28
2019-03-25T18:17:29.755Z,32.39
2019-03-25T18:20:00.328Z,32.36
2019-03-25T18:22:39.261Z,32.55
2019-03-25T18:25:02.698Z,32.58
2019-03-25T18:27:32.970Z,32.85
2019-03-25T18:30:03.415Z,32.83
2019-03-25T18:32:33.658Z,33.22
2019-03-25T18:35:03.902Z,33.47
2019-03-25T18:37:34.205Z,33.45
2019-03-25T18:40:04.424Z,33.51
2019-03-25T18:42:34.623Z,32.80
2019-03-25T18:45:05.457Z,32.57
2019-03-25T18:47:35.825Z,33.02
2019-03-25T18:50:06.324Z,32.79
2019-03-25T18:52:36.547Z,32.58
2019-03-25T18:55:06.894Z,32.98
2019-03-25T18:57:37.171Z,32.44
2019-03-25T19:00:07.582Z,32.35
2019-03-25T19:02:37.768Z,32.33
2019-03-25T19:05:07.881Z,32.11
2019-03-25T19:07:38.231Z,31.94
2019-03-25T19:10:08.551Z,32.56
2019-03-25T19:12:38.838Z,32.53
2019-03-25T19:15:09.178Z,32.61
2019-03-25T19:17:39.541Z,32.63
2019-03-25T19:20:09.837Z,32.63
2019-03-25T19:22:40.090Z,32.74
2019-03-25T19:25:10.347Z,32.83
2019-03-25T19:27:40.606Z,32.91
2019-03-25T19:30:13.358Z,33.06
2019-03-25T19:32:43.585Z,33.04
2019-03-25T19:35:13.833Z,32.99
2019-03-25T19:37:44.394Z,33.05
2019-03-25T19:40:14.689Z,32.91
2019-03-25T19:42:45.028Z,33.25
2019-03-25T19:45:15.324Z,33.10
2019-03-25T19:47:45.660Z,33.30
2019-03-25T19:50:15.963Z,33.29
2019-03-25T19:52:46.114Z,33.34
2019-03-25T19:55:16.338Z,33.33
2019-03-25T19:57:46.650Z,33.60
2019-03-25T20:00:18.469Z,33.72
2019-03-25T20:02:49.113Z,33.33
2019-03-25T20:05:19.589Z,32.94
2019-03-25T20:07:50.000Z,33.26
2019-03-25T20:10:33.576Z,33.59
2019-03-25T20:13:03.762Z,33.75
2019-03-25T20:15:45.592Z,33.83
2019-03-25T20:18:06.135Z,33.73
2019-03-25T20:20:36.407Z,32.89
2019-03-25T20:23:06.727Z,32.28
2019-03-25T20:25:36.897Z,31.77
2019-03-25T20:28:07.402Z,32.85
2019-03-25T20:30:37.785Z,33.12
2019-03-25T20:33:08.273Z,32.94
2019-03-25T20:35:38.632Z,31.50
2019-03-25T20:38:08.869Z,31.68
2019-03-25T20:40:39.130Z,32.39
2019-03-25T20:43:09.497Z,32.62
2019-03-25T20:45:39.849Z,32.59
2019-03-25T20:48:10.113Z,32.59
2019-03-25T20:50:40.488Z,32.69
2019-03-25T20:53:10.822Z,32.70
2019-03-25T20:55:41.035Z,32.79
2019-03-25T20:58:11.260Z,32.85
2019-03-25T21:00:51.928Z,32.88
2019-03-25T21:03:22.387Z,32.90
2019-03-25T21:05:52.641Z,33.02
2019-03-25T21:08:22.913Z,33.12
2019-03-25T21:10:53.199Z,33.17
2019-03-25T21:13:23.511Z,33.23
2019-03-25T21:15:53.848Z,33.25
2019-03-25T21:18:24.140Z,33.30
2019-03-25T21:20:54.427Z,33.40
2019-03-25T21:23:24.641Z,33.46
2019-03-25T21:25:54.872Z,33.50
2019-03-25T21:28:25.083Z,33.52
2019-03-25T21:30:55.397Z,33.70
2019-03-25T21:33:25.725Z,33.67
2019-03-25T21:35:55.993Z,33.62
2019-03-25T21:38:26.196Z,33.70
2019-03-25T21:40:56.453Z,33.82
2019-03-25T21:43:26.783Z,33.77
2019-03-25T21:45:57.130Z,33.91
2019-03-25T21:48:27.350Z,33.97
2019-03-25T21:50:57.531Z,33.94
2019-03-25T21:53:27.730Z,33.99
2019-03-25T21:55:58.050Z,34.02
2019-03-25T21:58:28.446Z,33.97
2019-03-25T22:00:58.784Z,34.04
2019-03-25T22:03:29.097Z,34.13
2019-03-25T22:05:59.360Z,34.04
2019-03-25T22:08:29.586Z,34.14
2019-03-25T22:10:59.799Z,34.17
2019-03-25T22:13:30.095Z,34.24
2019-03-25T22:16:00.319Z,34.26
2019-03-25T22:18:30.942Z,34.22
2019-03-25T22:21:01.176Z,34.30
2019-03-25T22:23:31.379Z,34.35
2019-03-25T22:26:01.539Z,34.42
2019-03-25T22:28:31.871Z,34.48
2019-03-25T22:31:02.170Z,34.52
2019-03-25T22:33:32.496Z,34.52
2019-03-25T22:36:02.639Z,34.56
2019-03-25T22:38:32.978Z,34.55
2019-03-25T22:41:03.160Z,34.58
2019-03-25T22:43:33.418Z,34.56
2019-03-25T22:46:03.632Z,34.55
2019-03-25T22:48:33.863Z,34.63
2019-03-25T22:51:04.079Z,34.62
2019-03-25T22:53:34.389Z,34.67
2019-03-25T22:56:04.707Z,34.70
2019-03-25T22:58:35.037Z,34.75
2019-03-25T23:01:05.356Z,34.74
2019-03-25T23:03:39.452Z,34.73
2019-03-25T23:06:07.568Z,34.76
2019-03-25T23:08:37.812Z,34.83
2019-03-25T23:11:08.090Z,34.74
2019-03-25T23:13:38.511Z,34.75
2019-03-25T23:16:08.911Z,34.88
2019-03-25T23:18:39.352Z,34.74
2019-03-25T23:21:09.691Z,34.83
2019-03-25T23:23:40.031Z,34.83
2019-03-25T23:26:10.349Z,34.91
2019-03-25T23:28:40.689Z,34.96
2019-03-25T23:31:11.015Z,34.95
2019-03-25T23:33:51.761Z,35.05
2019-03-25T23:36:13.598Z,34.98
2019-03-25T23:38:43.988Z,35.09
2019-03-25T23:41:14.438Z,35.02
2019-03-25T23:43:44.862Z,35.12
2019-03-25T23:46:15.289Z,35.20
2019-03-25T23:48:45.709Z,35.13
2019-03-25T23:51:16.066Z,35.20
2019-03-25T23:53:46.393Z,35.22
2019-03-25T23:56:18.763Z,35.17
2019-03-25T23:58:48.779Z,35.19
